createdAt,value
2022-12-04T00:00:21.576Z,0.36
2022-12-04T00:05:21.694Z,0.36
2022-12-04T00:10:21.485Z,0.38
2022-12-04T00:15:26.196Z,0.45
2022-12-04T00:20:22.825Z,0.51
2022-12-04T00:25:21.746Z,0.48
2022-12-04T00:30:21.657Z,0.53
2022-12-04T00:35:21.817Z,0.48
2022-12-04T00:40:21.581Z,0.48
2022-12-04T00:45:21.570Z,0.53
2022-12-04T00:50:21.681Z,0.64
2022-12-04T00:55:21.611Z,0.64
2022-12-04T01:00:22.363Z,0.65
2022-12-04T01:05:21.658Z,0.66
2022-12-04T01:10:22.011Z,0.63
2022-12-04T01:15:21.670Z,0.70
2022-12-04T01:20:21.724Z,0.68
2022-12-04T01:25:21.743Z,0.68
2022-12-04T01:30:22.233Z,0.70
2022-12-04T01:35:21.446Z,0.69
2022-12-04T01:40:21.666Z,0.73
2022-12-04T01:45:37.757Z,0.74
2022-12-04T01:50:21.885Z,0.69
2022-12-04T01:55:21.810Z,0.62
2022-12-04T02:00:21.625Z,0.60
2022-12-04T02:05:22.309Z,0.60
2022-12-04T02:10:26.352Z,0.59
2022-12-04T02:15:26.782Z,0.58
2022-12-04T02:20:30.353Z,0.58
2022-12-04T02:25:29.071Z,0.61
2022-12-04T02:30:21.993Z,0.56
2022-12-04T02:35:25.799Z,0.52
2022-12-04T02:40:25.769Z,0.50
2022-12-04T02:45:26.304Z,0.48
2022-12-04T02:50:23.447Z,0.51
2022-12-04T02:55:28.726Z,0.54
2022-12-04T03:00:21.750Z,0.46
2022-12-04T03:05:26.290Z,0.47
2022-12-04T03:10:26.433Z,0.53
2022-12-04T03:15:27.085Z,0.58
2022-12-04T03:20:23.341Z,0.61
2022-12-04T03:25:27.849Z,0.58
2022-12-04T03:30:22.539Z,0.54
2022-12-04T03:35:25.835Z,0.45
2022-12-04T03:40:25.809Z,0.39
2022-12-04T03:45:25.970Z,0.40
2022-12-04T03:50:29.246Z,0.36
2022-12-04T03:55:26.065Z,0.40
2022-12-04T04:00:22.769Z,0.41
2022-12-04T04:05:23.040Z,0.39
2022-12-04T04:10:25.685Z,0.42
2022-12-04T04:15:31.538Z,0.45
2022-12-04T04:20:36.251Z,0.52
2022-12-04T04:25:24.898Z,0.43
2022-12-04T04:30:22.414Z,0.42
2022-12-04T04:35:29.895Z,0.42
2022-12-04T04:40:26.998Z,0.33
2022-12-04T04:45:26.828Z,0.37
2022-12-04T04:50:21.972Z,0.31
2022-12-04T04:55:22.933Z,0.30
2022-12-04T05:00:22.513Z,0.29
2022-12-04T05:05:21.604Z,0.32
2022-12-04T05:10:21.388Z,0.34
2022-12-04T05:15:21.222Z,0.26
2022-12-04T05:20:21.220Z,0.34
2022-12-04T05:25:21.448Z,0.33
2022-12-04T05:30:21.372Z,0.29
2022-12-04T05:35:21.601Z,0.34
2022-12-04T05:40:21.583Z,0.31
2022-12-04T05:45:21.504Z,0.41
2022-12-04T05:50:21.445Z,0.39
2022-12-04T05:55:21.646Z,0.36
2022-12-04T06:00:21.626Z,0.42
2022-12-04T06:05:21.334Z,0.40
2022-12-04T06:10:21.576Z,0.41
2022-12-04T06:15:21.188Z,0.42
2022-12-04T06:20:21.339Z,0.38
2022-12-04T06:25:21.643Z,0.37
2022-12-04T06:30:21.282Z,0.29
2022-12-04T06:35:21.331Z,0.31
2022-12-04T06:40:21.467Z,0.26
2022-12-04T06:45:21.245Z,0.34
2022-12-04T06:50:21.151Z,0.30
2022-12-04T06:55:21.395Z,0.32
2022-12-04T07:00:21.222Z,0.37
2022-12-04T07:05:21.161Z,0.24
2022-12-04T07:10:21.499Z,0.22
2022-12-04T07:15:21.191Z,0.25
2022-12-04T07:20:21.234Z,0.22
2022-12-04T07:25:21.670Z,0.21
2022-12-04T07:30:21.405Z,0.22
2022-12-04T07:35:21.159Z,0.28
2022-12-04T07:40:21.273Z,0.27
2022-12-04T07:45:21.295Z,0.30
2022-12-04T07:50:21.192Z,0.26
2022-12-04T07:55:23.311Z,0.26
2022-12-04T08:00:21.554Z,0.33
2022-12-04T08:05:21.258Z,0.29
2022-12-04T08:10:21.084Z,0.36
2022-12-04T08:15:21.474Z,0.38
2022-12-04T08:20:21.021Z,0.40
2022-12-04T08:25:21.386Z,0.45
2022-12-04T08:25:46.714Z,0.45
2022-12-04T08:30:21.018Z,0.42
2022-12-04T08:35:21.040Z,0.36
2022-12-04T08:40:22.295Z,0.29
2022-12-04T08:45:21.344Z,0.32
2022-12-04T08:50:21.291Z,0.37
2022-12-04T08:55:16.269Z,0.49
2022-12-04T08:55:20.678Z,0.49
2022-12-04T09:00:21.069Z,0.47
2022-12-04T09:05:21.242Z,0.44
2022-12-04T09:10:20.965Z,0.44
2022-12-04T09:15:21.016Z,0.45
2022-12-04T09:20:21.295Z,0.55
2022-12-04T09:25:21.102Z,0.57
2022-12-04T09:30:20.996Z,0.49
2022-12-04T09:35:21.028Z,0.55
2022-12-04T09:40:25.722Z,0.65
2022-12-04T09:45:24.411Z,0.57
2022-12-04T09:50:23.321Z,0.57
2022-12-04T09:53:27.803Z,0.57
2022-12-04T09:55:25.373Z,0.70
2022-12-04T10:00:21.193Z,0.70
2022-12-04T10:05:34.170Z,0.66
2022-12-04T10:10:29.130Z,0.74
2022-12-04T10:15:28.912Z,0.77
2022-12-04T10:20:34.094Z,0.80
2022-12-04T10:25:22.741Z,0.81
2022-12-04T10:30:24.036Z,0.84
2022-12-04T10:35:24.293Z,0.94
2022-12-04T10:40:25.021Z,0.93
2022-12-04T10:45:22.249Z,1.03
2022-12-04T10:50:23.422Z,1.11
2022-12-04T10:55:30.937Z,1.21
2022-12-04T11:00:26.068Z,1.23
2022-12-04T11:05:27.100Z,1.27
2022-12-04T11:10:25.018Z,1.28
2022-12-04T11:15:21.742Z,1.32
2022-12-04T11:20:23.059Z,1.35
2022-12-04T11:25:22.648Z,1.39
2022-12-04T11:30:33.246Z,1.43
2022-12-04T11:35:24.580Z,1.44
2022-12-04T11:40:22.124Z,1.53
2022-12-04T11:45:22.872Z,1.51
2022-12-04T11:50:32.877Z,1.48
2022-12-04T11:55:28.839Z,1.40
2022-12-04T12:00:22.548Z,1.31
2022-12-04T12:05:31.916Z,1.41
2022-12-04T12:10:26.683Z,1.40
2022-12-04T12:15:31.056Z,1.37
2022-12-04T12:20:23.171Z,1.36
2022-12-04T12:25:27.324Z,1.32
2022-12-04T12:30:22.586Z,1.34
2022-12-04T12:35:26.569Z,1.34
2022-12-04T12:40:29.689Z,1.32
2022-12-04T12:45:27.375Z,1.36
2022-12-04T12:50:25.311Z,1.23
2022-12-04T12:55:23.732Z,1.29
2022-12-04T13:00:22.897Z,1.30
2022-12-04T13:05:25.584Z,1.30
2022-12-04T13:10:25.289Z,1.19
2022-12-04T13:15:33.591Z,1.17
2022-12-04T13:20:24.427Z,1.15
2022-12-04T13:25:33.342Z,1.23
2022-12-04T13:30:23.859Z,1.23
2022-12-04T13:35:30.352Z,1.16
2022-12-04T13:40:28.449Z,1.19
2022-12-04T13:45:26.812Z,1.18
2022-12-04T13:50:27.405Z,1.22
2022-12-04T13:55:25.728Z,1.24
2022-12-04T14:00:28.129Z,1.17
2022-12-04T14:05:26.884Z,1.09
2022-12-04T14:10:25.838Z,1.10
2022-12-04T14:15:23.528Z,1.13
2022-12-04T14:20:24.304Z,1.05
2022-12-04T14:25:33.361Z,0.96
2022-12-04T14:29:43.951Z,0.96
2022-12-04T14:30:23.843Z,0.94
2022-12-04T14:35:23.661Z,0.96
2022-12-04T14:40:23.928Z,0.92
2022-12-04T14:45:27.717Z,0.98
2022-12-04T14:50:29.003Z,0.95
2022-12-04T14:55:28.834Z,0.94
2022-12-04T14:59:05.516Z,0.94
2022-12-04T15:00:23.476Z,0.98
2022-12-04T15:05:24.725Z,0.93
2022-12-04T15:10:32.751Z,0.88
2022-12-04T15:15:24.269Z,0.91
2022-12-04T15:20:21.530Z,0.91
2022-12-04T15:25:25.128Z,0.92
2022-12-04T15:30:22.846Z,0.86
2022-12-04T15:35:25.043Z,0.89
2022-12-04T15:40:23.452Z,0.91
2022-12-04T15:45:23.168Z,0.91
2022-12-04T15:50:26.193Z,0.92
2022-12-04T15:55:23.468Z,0.80
2022-12-04T16:00:24.895Z,0.84
2022-12-04T16:05:28.120Z,0.80
2022-12-04T16:10:22.982Z,0.78
2022-12-04T16:15:21.947Z,0.81
2022-12-04T16:20:20.746Z,0.81
2022-12-04T16:25:20.720Z,0.83
2022-12-04T16:30:20.823Z,0.88
2022-12-04T16:35:20.762Z,0.91
2022-12-04T16:40:20.788Z,0.86
2022-12-04T16:45:24.521Z,0.80
2022-12-04T16:50:20.837Z,0.83
2022-12-04T16:55:28.217Z,0.71
2022-12-04T17:00:21.028Z,0.67
2022-12-04T17:05:22.636Z,0.74
2022-12-04T17:10:23.994Z,0.73
2022-12-04T17:15:21.459Z,0.72
2022-12-04T17:20:21.770Z,0.62
2022-12-04T17:25:20.793Z,0.63
2022-12-04T17:30:20.846Z,0.58
2022-12-04T17:31:19.239Z,0.58
2022-12-04T17:35:20.650Z,0.60
2022-12-04T17:40:20.643Z,0.64
2022-12-04T17:45:20.965Z,0.53
2022-12-04T17:50:20.636Z,0.53
2022-12-04T17:55:21.190Z,0.59
2022-12-04T18:00:20.762Z,0.52
2022-12-04T18:05:20.901Z,0.49
2022-12-04T18:10:20.533Z,0.47
2022-12-04T18:15:20.978Z,0.56
2022-12-04T18:20:20.532Z,0.63
2022-12-04T18:25:20.736Z,0.59
2022-12-04T18:30:20.813Z,0.54
2022-12-04T18:35:20.484Z,0.60
2022-12-04T18:40:20.688Z,0.55
2022-12-04T18:45:21.476Z,0.57
2022-12-04T18:50:20.478Z,0.56
2022-12-04T18:55:20.575Z,0.57
2022-12-04T19:00:20.822Z,0.57
2022-12-04T19:05:20.428Z,0.51
2022-12-04T19:10:20.536Z,0.46
2022-12-04T19:15:21.458Z,0.50
2022-12-04T19:20:20.662Z,0.48
2022-12-04T19:25:20.580Z,0.54
2022-12-04T19:30:20.510Z,0.45
2022-12-04T19:35:20.475Z,0.45
2022-12-04T19:40:21.461Z,0.44
2022-12-04T19:45:20.424Z,0.40
2022-12-04T19:50:20.562Z,0.39
2022-12-04T19:55:20.689Z,0.45
2022-12-04T20:00:20.490Z,0.41
2022-12-04T20:05:20.562Z,0.50
2022-12-04T20:10:21.322Z,0.59
2022-12-04T20:15:20.550Z,0.53
2022-12-04T20:20:20.546Z,0.55
2022-12-04T20:25:20.746Z,0.66
2022-12-04T20:30:20.393Z,0.73
2022-12-04T20:35:20.404Z,0.83
2022-12-04T20:40:20.690Z,0.79
2022-12-04T20:45:20.639Z,0.81
2022-12-04T20:50:20.643Z,0.77
2022-12-04T20:55:20.601Z,0.80
2022-12-04T21:00:20.433Z,0.89
2022-12-04T21:05:20.737Z,0.75
2022-12-04T21:10:20.359Z,0.79
2022-12-04T21:15:30.320Z,0.84
2022-12-04T21:20:20.370Z,0.90
2022-12-04T21:25:20.461Z,0.90
2022-12-04T21:30:20.336Z,0.98
2022-12-04T21:35:20.506Z,0.88
2022-12-04T21:40:20.370Z,0.92
2022-12-04T21:45:20.449Z,0.99
2022-12-04T21:50:20.345Z,1.03
2022-12-04T21:55:20.425Z,1.02
2022-12-04T22:00:20.410Z,0.98
2022-12-04T22:05:20.529Z,0.95
2022-12-04T22:10:20.557Z,0.96
2022-12-04T22:15:20.454Z,0.95
2022-12-04T22:20:21.001Z,0.94
2022-12-04T22:25:20.286Z,0.94
2022-12-04T22:30:20.644Z,0.89
2022-12-04T22:35:20.356Z,0.88
2022-12-04T22:40:20.443Z,0.78
2022-12-04T22:45:20.511Z,0.70
2022-12-04T22:50:20.369Z,0.72
2022-12-04T22:55:20.393Z,0.73
2022-12-04T23:00:20.715Z,0.67
2022-12-04T23:05:20.275Z,0.62
2022-12-04T23:10:20.264Z,0.62
2022-12-04T23:15:20.289Z,0.62
2022-12-04T23:20:20.362Z,0.60
2022-12-04T23:25:20.683Z,0.62
2022-12-04T23:30:26.145Z,0.66
2022-12-04T23:35:20.279Z,0.60
2022-12-04T23:40:20.379Z,0.57
2022-12-04T23:45:20.604Z,0.58
2022-12-04T23:50:20.437Z,0.57
2022-12-04T23:55:20.318Z,0.54
